Time;durP1;ratioP1;P1;durP2;ratioP2;P2;SDS_P1;SDS_P2;PMS_P1;PMS_P2;Temp;Humidity;BMP_temperature;BMP_pressure;BME280_temperature;BME280_humidity;BME280_pressure;Samples;Min_cycle;Max_cycle;Signal;HPM_P1;HPM_P2
2022/03/17 00:01:27;;;;;;;27.13;24.23;;;;;;;7.32;75.87;96027.66;4389899;32;20243;-60
2022/03/17 00:03:52;;;;;;;27.53;23.83;;;;;;;7.21;75.88;96018.09;4380085;32;20196;-59
2022/03/17 00:06:21;;;;;;;27.47;24.23;;;;;;;7.34;75.67;96022.91;4382022;32;20300;-59
2022/03/17 00:08:46;;;;;;;25.63;22.93;;;;;;;7.36;75.52;96022.66;4385786;32;20241;-59
2022/03/17 00:11:18;;;;;;;26.37;23.57;;;;;;;7.36;75.32;96020.81;4384097;32;20298;-59
2022/03/17 00:13:43;;;;;;;26.87;23.80;;;;;;;7.36;75.50;96025.31;4370442;32;20204;-59
2022/03/17 00:16:10;;;;;;;26.90;23.87;;;;;;;7.28;76.06;96031.03;4360653;32;20335;-59
2022/03/17 00:18:55;;;;;;;26.93;23.93;;;;;;;7.36;75.70;96023.44;4383092;32;20212;-59
2022/03/17 00:21:26;;;;;;;27.43;24.43;;;;;;;7.23;75.90;96023.91;4384320;32;20294;-59
2022/03/17 00:23:52;;;;;;;27.07;23.97;;;;;;;7.31;75.43;96026.06;4373551;32;20289;-59
2022/03/17 00:26:22;;;;;;;26.90;24.03;;;;;;;7.29;75.58;96027.34;4376855;32;20332;-59
2022/03/17 00:28:47;;;;;;;27.57;23.43;;;;;;;6.93;76.37;96019.22;4357189;32;20204;-59
2022/03/17 00:31:22;;;;;;;27.23;24.33;;;;;;;7.11;76.20;96018.81;4387717;32;20366;-59
2022/03/17 00:33:47;;;;;;;26.83;23.63;;;;;;;7.35;75.39;96013.94;4370223;32;20234;-60
2022/03/17 00:36:20;;;;;;;27.97;23.70;;;;;;;7.26;75.38;96019.97;4376522;32;20276;-59
2022/03/17 00:38:45;;;;;;;26.93;24.13;;;;;;;7.17;75.59;96023.06;4378077;32;20203;-59
2022/03/17 00:41:19;;;;;;;25.93;23.13;;;;;;;7.14;75.95;96015.66;4357599;32;20280;-59
2022/03/17 00:43:45;;;;;;;26.40;23.67;;;;;;;7.20;75.55;96027.06;4376827;32;20231;-59
2022/03/17 00:46:39;;;;;;;27.83;23.93;;;;;;;7.20;75.25;96014.66;4386594;32;20280;-59
2022/03/17 00:49:05;;;;;;;27.33;24.43;;;;;;;7.06;75.86;96012.72;4360669;32;20204;-59
2022/03/17 00:51:30;;;;;;;27.57;24.03;;;;;;;7.17;75.25;96009.88;4362170;32;20311;-59
2022/03/17 00:53:56;;;;;;;26.53;23.77;;;;;;;7.06;75.61;96016.16;4362733;32;20189;-59
2022/03/17 00:56:22;;;;;;;25.57;22.87;;;;;;;6.98;75.86;96010.53;4364759;32;20191;-59
2022/03/17 00:58:48;;;;;;;26.20;23.40;;;;;;;6.97;75.84;96011.59;4390430;32;20294;-59
2022/03/17 01:01:32;;;;;;;26.23;23.43;;;;;;;6.94;76.20;96007.63;4384489;32;20177;-59
2022/03/17 01:03:58;;;;;;;24.27;21.67;;;;;;;6.94;75.71;96004.19;4362633;32;20847;-59
2022/03/17 01:06:23;;;;;;;26.03;23.23;;;;;;;6.87;75.95;96009.66;4372251;32;20293;-59
2022/03/17 01:08:49;;;;;;;25.23;22.53;;;;;;;6.92;75.33;96009.72;4369876;32;20180;-59
2022/03/17 01:11:32;;;;;;;25.20;21.63;;;;;;;6.75;76.21;96009.06;4379977;32;20189;-59
2022/03/17 01:13:57;;;;;;;27.17;22.90;;;;;;;6.82;76.16;96005.16;4389565;32;23351;-59
2022/03/17 01:16:26;;;;;;;28.27;23.17;;;;;;;6.73;76.33;96009.31;4373973;32;20273;-59
2022/03/17 01:18:51;;;;;;;23.90;21.13;;;;;;;6.92;75.63;96007.06;4372656;32;20304;-59
2022/03/17 01:21:22;;;;;;;25.77;23.07;;;;;;;6.90;75.63;95998.63;4383398;32;20332;-58
2022/03/17 01:23:47;;;;;;;24.50;21.90;;;;;;;6.89;75.71;95992.53;4375919;32;20228;-60
2022/03/17 01:26:22;;;;;;;25.60;21.77;;;;;;;6.85;75.30;95995.97;4376394;32;20311;-59
2022/03/17 01:28:47;;;;;;;24.60;22.00;;;;;;;6.76;75.89;95987.72;4376135;32;20277;-59
2022/03/17 01:31:31;;;;;;;25.03;22.33;;;;;;;6.88;75.41;95988.31;4379829;32;20284;-59
2022/03/17 01:33:57;;;;;;;22.93;20.53;;;;;;;7.00;75.08;95992.63;4378325;32;20236;-59
2022/03/17 01:36:31;;;;;;;24.17;20.97;;;;;;;6.98;75.18;95978.91;4361990;32;20338;-59
2022/03/17 01:38:57;;;;;;;23.83;21.33;;;;;;;6.94;74.94;95973.31;4376290;32;20220;-59
2022/03/17 01:41:28;;;;;;;26.67;21.90;;;;;;;6.88;75.01;95977.75;4379895;32;20289;-59
2022/03/17 01:43:54;;;;;;;24.73;22.13;;;;;;;7.01;74.86;95983.66;4382105;32;20196;-59
2022/03/17 01:46:28;;;;;;;23.27;20.87;;;;;;;6.90;74.59;95986.22;4374372;32;20307;-59
2022/03/17 01:48:54;;;;;;;23.37;20.97;;;;;;;6.95;74.76;95985.47;4366414;32;20219;-59
2022/03/17 01:51:31;;;;;;;23.60;21.17;;;;;;;6.90;74.80;95977.50;4364909;32;20293;-59
2022/03/17 01:53:57;;;;;;;24.60;21.57;;;;;;;6.93;74.46;95973.56;4376607;32;20250;-60
2022/03/17 01:56:28;;;;;;;22.97;20.43;;;;;;;6.82;74.84;95970.88;4373485;32;20384;-59
2022/03/17 01:58:53;;;;;;;22.63;20.33;;;;;;;6.83;74.62;95982.22;4365331;32;20207;-59
2022/03/17 02:01:31;;;;;;;22.93;20.57;;;;;;;6.94;74.43;95972.53;4377635;32;20293;-59
2022/03/17 02:03:56;;;;;;;24.20;21.70;;;;;;;6.78;74.79;95972.44;4385673;32;20203;-59
2022/03/17 02:06:51;;;;;;;23.20;20.70;;;;;;;6.82;74.56;95976.16;4388779;32;20292;-59
2022/03/17 02:09:18;;;;;;;23.47;20.97;;;;;;;6.67;75.54;95977.88;4370064;32;20192;-59
2022/03/17 02:14:28;;;;;;;26.57;22.83;;;;;;;6.52;75.88;95966.16;4384918;32;20334;-59
2022/03/17 02:16:53;;;;;;;24.80;22.30;;;;;;;6.56;76.05;95961.19;4375496;32;20284;-59
2022/03/17 02:19:22;;;;;;;22.93;20.50;;;;;;;6.54;75.95;95963.28;4393145;32;20272;-59
2022/03/17 02:21:49;;;;;;;22.73;20.30;;;;;;;6.70;75.41;95962.34;4386055;32;20231;-59
2022/03/17 02:27:01;;;;;;;23.03;20.63;;;;;;;6.51;76.02;95963.78;4377977;32;20315;-59
2022/03/17 02:29:26;;;;;;;22.63;20.23;;;;;;;6.54;75.93;95955.38;4377070;32;20297;-59
2022/03/17 02:31:52;;;;;;;23.73;21.30;;;;;;;6.38;76.68;95951.81;4382101;32;20307;-59
2022/03/17 02:34:19;;;;;;;25.93;21.43;;;;;;;6.42;77.02;95955.56;4369542;32;20224;-59
2022/03/17 02:36:47;;;;;;;21.93;19.60;;;;;;;6.48;76.61;95948.47;4378314;32;20277;-59
2022/03/17 02:39:13;;;;;;;24.80;22.20;;;;;;;6.49;76.28;95950.84;4372985;32;20283;-59
2022/03/17 02:41:42;;;;;;;24.53;21.60;;;;;;;6.50;76.53;95946.37;4381209;32;20273;-60
2022/03/17 02:44:08;;;;;;;24.90;21.23;;;;;;;6.50;76.39;95952.44;4365507;32;20204;-59
2022/03/17 02:46:34;;;;;;;24.47;21.87;;;;;;;6.54;76.17;95956.16;4368135;32;20280;-60
2022/03/17 02:48:59;;;;;;;23.83;21.43;;;;;;;6.50;76.17;95954.28;4384181;32;20305;-59
2022/03/17 02:51:38;;;;;;;24.37;21.77;;;;;;;6.36;76.66;95956.56;4390247;32;20189;-59
2022/03/17 02:54:03;;;;;;;25.00;21.70;;;;;;;6.10;77.77;95947.63;4388113;32;20200;-59
2022/03/17 02:56:40;;;;;;;23.97;21.20;;;;;;;6.02;78.24;95966.50;4381655;32;20289;-59
2022/03/17 02:59:05;;;;;;;25.50;21.47;;;;;;;6.07;78.28;95960.47;4377235;32;20189;-59
2022/03/17 03:01:31;;;;;;;23.00;20.60;;;;;;;6.14;78.33;95966.34;4384633;32;20322;-59
2022/03/17 03:03:57;;;;;;;26.40;21.60;;;;;;;6.06;78.21;95956.25;4364368;32;20220;-59
2022/03/17 03:06:22;;;;;;;25.17;22.47;;;;;;;6.22;77.66;95957.22;4377317;32;20242;-59
2022/03/17 03:08:47;;;;;;;25.37;22.53;;;;;;;6.20;77.45;95958.25;4384516;32;20296;-59
2022/03/17 03:11:22;;;;;;;24.60;21.93;;;;;;;6.12;78.01;95977.13;4378053;32;20189;-59
2022/03/17 03:13:47;;;;;;;24.53;21.93;;;;;;;6.44;77.21;95987.69;4384891;32;20290;-59
2022/03/17 03:16:19;;;;;;;25.60;21.90;;;;;;;6.35;77.28;95980.50;4384889;32;20347;-59
2022/03/17 03:18:44;;;;;;;26.60;22.63;;;;;;;6.46;77.12;95976.91;4368708;32;20195;-59
2022/03/17 03:21:34;;;;;;;24.90;21.83;;;;;;;6.48;76.86;95975.63;4382731;32;20280;-59
2022/03/17 03:24:00;;;;;;;26.20;23.23;;;;;;;6.51;76.60;95975.13;4372485;32;20252;-59
2022/03/17 03:26:26;;;;;;;24.17;21.77;;;;;;;6.58;76.22;95963.56;4377302;32;20268;-59
2022/03/17 03:28:52;;;;;;;23.80;21.07;;;;;;;6.47;76.71;95963.47;4379444;32;20185;-58
2022/03/17 03:31:21;;;;;;;25.10;22.40;;;;;;;6.43;76.63;95970.31;4363599;32;20233;-59
2022/03/17 03:33:47;;;;;;;24.83;22.23;;;;;;;6.63;76.26;95980.22;4390256;32;20268;-60
2022/03/17 03:38:59;;;;;;;24.67;21.23;;;;;;;6.60;75.76;95986.00;4374393;32;20333;-59
2022/03/17 03:41:30;;;;;;;25.20;22.53;;;;;;;6.77;75.35;95978.75;4385507;32;20288;-59
2022/03/17 03:43:55;;;;;;;33.97;22.07;;;;;;;6.77;75.06;95985.88;4385778;32;20180;-59
2022/03/17 03:46:27;;;;;;;24.27;21.63;;;;;;;6.79;75.02;95989.84;4378611;32;20394;-59
2022/03/17 03:48:52;;;;;;;25.33;22.63;;;;;;;6.69;75.55;96005.56;4376204;32;20203;-59
2022/03/17 03:51:29;;;;;;;26.57;22.57;;;;;;;6.55;76.11;95997.28;4381115;32;20296;-59
2022/03/17 03:54:13;;;;;;;24.43;21.97;;;;;;;6.65;75.63;95990.53;4374384;32;20207;-59
2022/03/17 03:56:39;;;;;;;26.13;23.33;;;;;;;6.50;76.11;95993.81;4361746;32;20285;-60
2022/03/17 03:59:08;;;;;;;24.50;21.50;;;;;;;6.61;75.83;96000.78;4378155;32;20315;-59
2022/03/17 04:01:33;;;;;;;26.73;23.00;;;;;;;6.57;75.85;95993.63;4390791;32;20215;-59
2022/03/17 04:04:01;;;;;;;24.93;21.87;;;;;;;6.61;75.74;95984.97;4376238;32;20276;-59
2022/03/17 04:06:47;;;;;;;25.60;22.80;;;;;;;6.47;76.25;95991.66;4376887;32;20262;-60
2022/03/17 04:09:13;;;;;;;27.47;22.80;;;;;;;6.40;76.78;95988.47;4363167;32;20372;-59
2022/03/17 04:11:55;;;;;;;25.30;22.63;;;;;;;6.37;76.69;95983.69;4365944;32;20272;-59
2022/03/17 04:14:21;;;;;;;28.33;24.27;;;;;;;6.33;76.88;95978.13;4363104;32;20284;-60
2022/03/17 04:16:46;;;;;;;26.40;23.47;;;;;;;6.39;76.61;95977.13;4378234;32;20280;-59
2022/03/17 04:19:12;;;;;;;26.50;23.70;;;;;;;6.29;76.79;95966.50;4361926;32;20193;-59
2022/03/17 04:21:39;;;;;;;26.30;23.60;;;;;;;6.27;77.03;95979.09;4378509;32;20199;-59
2022/03/17 04:24:05;;;;;;;27.93;24.17;;;;;;;6.26;77.43;95982.00;4375677;32;20208;-59
2022/03/17 04:26:31;;;;;;;26.63;22.57;;;;;;;6.15;77.73;95986.38;4375749;32;20289;-59
2022/03/17 04:28:56;;;;;;;26.20;23.43;;;;;;;6.33;77.00;95990.50;4378238;32;20192;-59
2022/03/17 04:31:38;;;;;;;25.30;22.60;;;;;;;6.40;76.97;95988.47;4390354;32;20188;-59
2022/03/17 04:34:03;;;;;;;26.63;23.63;;;;;;;6.43;76.73;95993.25;4377087;32;20228;-59
2022/03/17 04:36:30;;;;;;;25.60;22.87;;;;;;;6.38;76.66;95998.47;4354171;32;20300;-59
2022/03/17 04:38:56;;;;;;;24.73;22.03;;;;;;;6.44;76.50;96002.75;4363737;32;20169;-59
2022/03/17 04:41:24;;;;;;;25.37;22.70;;;;;;;6.41;76.60;96006.66;4376824;32;20288;-59
2022/03/17 04:43:49;;;;;;;26.33;23.47;;;;;;;6.20;77.23;95999.63;4362692;32;20208;-59
2022/03/17 04:46:24;;;;;;;28.13;24.40;;;;;;;6.29;77.13;95998.09;4375095;32;20326;-59
2022/03/17 04:48:49;;;;;;;26.37;23.13;;;;;;;6.09;77.72;95998.69;4385514;32;20250;-59
2022/03/17 04:51:26;;;;;;;26.77;23.87;;;;;;;6.21;77.45;96006.47;4376149;32;20281;-59
2022/03/17 04:53:52;;;;;;;25.27;22.50;;;;;;;6.03;78.10;96010.22;4360031;32;20236;-59
2022/03/17 04:56:29;;;;;;;28.00;23.53;;;;;;;5.99;78.31;96009.13;4376676;32;20335;-58
2022/03/17 04:58:55;;;;;;;28.10;25.10;;;;;;;6.15;77.84;95999.56;4377475;32;20199;-59
2022/03/17 05:01:33;;;;;;;27.77;24.63;;;;;;;6.02;78.34;95992.84;4386885;32;20338;-59
2022/03/17 05:03:58;;;;;;;27.00;24.10;;;;;;;6.00;78.48;96002.03;4374163;32;22043;-59
2022/03/17 05:06:27;;;;;;;28.07;25.13;;;;;;;6.00;78.59;96004.66;4374271;32;20372;-59
2022/03/17 05:08:52;;;;;;;28.73;25.37;;;;;;;5.89;78.91;96016.13;4362452;32;20202;-60
2022/03/17 05:11:21;;;;;;;26.63;23.83;;;;;;;6.03;78.47;96009.41;4369792;32;20283;-59
2022/03/17 05:13:48;;;;;;;26.43;23.03;;;;;;;5.92;78.92;96007.72;4370097;32;20196;-59
2022/03/17 05:16:23;;;;;;;28.07;25.17;;;;;;;6.02;78.44;96008.66;4385612;32;20367;-59
2022/03/17 05:18:51;;;;;;;27.43;22.87;;;;;;;5.97;78.74;96010.44;4388930;32;20284;-59
2022/03/17 05:21:46;;;;;;;28.27;24.27;;;;;;;6.25;77.85;96025.97;4359272;32;20296;-59
2022/03/17 05:24:11;;;;;;;28.50;24.17;;;;;;;6.27;77.57;96026.53;4373775;32;20337;-59
2022/03/17 05:26:38;;;;;;;26.60;23.80;;;;;;;6.36;76.93;96025.06;4390790;32;20371;-59
2022/03/17 05:29:03;;;;;;;27.97;24.97;;;;;;;6.56;76.42;96029.72;4362301;32;20211;-59
2022/03/17 05:31:28;;;;;;;26.60;23.83;;;;;;;6.63;76.00;96038.22;4362435;32;20375;-59
2022/03/17 05:33:53;;;;;;;26.90;24.00;;;;;;;6.77;75.44;96044.66;4375957;32;20262;-59
2022/03/17 05:36:21;;;;;;;28.00;24.60;;;;;;;6.41;76.50;96054.09;4381985;32;20181;-59
2022/03/17 05:38:47;;;;;;;29.13;26.03;;;;;;;6.58;76.37;96053.19;4377268;32;20188;-60
2022/03/17 05:41:22;;;;;;;27.53;24.63;;;;;;;6.47;76.29;96049.66;4375616;32;20299;-59
2022/03/17 05:43:47;;;;;;;27.93;24.87;;;;;;;6.29;76.88;96055.25;4375628;32;20184;-59
2022/03/17 05:46:27;;;;;;;27.30;24.13;;;;;;;6.18;77.82;96055.16;4375059;32;20296;-59
2022/03/17 05:48:53;;;;;;;28.50;25.43;;;;;;;6.42;76.96;96060.16;4383787;32;20188;-59
2022/03/17 05:51:27;;;;;;;28.97;25.87;;;;;;;6.28;77.44;96051.03;4366795;32;20281;-59
2022/03/17 05:53:52;;;;;;;28.13;24.70;;;;;;;6.28;77.87;96058.94;4374906;32;20263;-59
2022/03/17 05:56:27;;;;;;;27.83;24.37;;;;;;;6.15;78.01;96062.78;4361932;32;20284;-59
2022/03/17 05:58:52;;;;;;;27.40;24.40;;;;;;;6.23;78.24;96064.97;4381160;32;20192;-59
2022/03/17 06:01:26;;;;;;;28.87;25.77;;;;;;;6.43;77.41;96064.38;4384881;32;20347;-60
2022/03/17 06:03:52;;;;;;;29.17;26.07;;;;;;;6.34;77.59;96074.56;4380451;32;20244;-59
2022/03/17 06:06:23;;;;;;;28.27;25.27;;;;;;;6.16;78.32;96078.31;4386114;32;20326;-59
2022/03/17 06:08:49;;;;;;;28.83;25.70;;;;;;;6.27;77.84;96084.50;4377557;32;20201;-59
2022/03/17 06:11:23;;;;;;;30.77;26.60;;;;;;;6.48;77.16;96085.50;4383858;32;20307;-59
2022/03/17 06:13:49;;;;;;;28.13;24.27;;;;;;;6.51;77.09;96087.66;4378445;32;20206;-59
2022/03/17 06:16:24;;;;;;;30.37;25.50;;;;;;;6.51;76.78;96085.00;4379431;32;20284;-59
2022/03/17 06:18:49;;;;;;;28.30;25.20;;;;;;;6.42;77.10;96086.50;4374719;32;20196;-59
2022/03/17 06:21:20;;;;;;;28.73;25.60;;;;;;;6.45;77.31;96091.25;4372148;32;20287;-59
2022/03/17 06:23:46;;;;;;;29.67;25.97;;;;;;;6.45;77.36;96086.00;4375039;32;20193;-59
2022/03/17 06:26:23;;;;;;;33.70;27.17;;;;;;;6.29;78.06;96094.78;4361167;32;20291;-59
2022/03/17 06:28:48;;;;;;;32.33;25.97;;;;;;;6.45;77.61;96099.16;4374684;32;20228;-59
2022/03/17 06:31:23;;;;;;;29.73;25.30;;;;;;;6.51;77.33;96098.19;4380168;32;20303;-59
2022/03/17 06:33:48;;;;;;;29.97;24.93;;;;;;;6.70;76.60;96109.19;4377721;32;20227;-59
2022/03/17 06:36:19;;;;;;;31.13;26.80;;;;;;;6.72;76.24;96110.53;4362046;32;20333;-59
2022/03/17 06:38:45;;;;;;;31.77;26.10;;;;;;;6.61;76.43;96100.94;4361647;32;20181;-59
2022/03/17 06:41:25;;;;;;;30.47;27.07;;;;;;;6.64;76.44;96108.38;4373893;32;20302;-59
2022/03/17 06:43:50;;;;;;;28.00;25.10;;;;;;;6.48;77.41;96102.12;4381505;32;20184;-59
2022/03/17 06:46:18;;;;;;;29.37;26.03;;;;;;;6.56;76.65;96108.78;4368909;32;20272;-59
2022/03/17 06:48:44;;;;;;;28.43;25.33;;;;;;;6.55;76.50;96113.28;4372173;32;20189;-59
2022/03/17 06:51:24;;;;;;;31.33;26.10;;;;;;;6.76;76.42;96111.63;4368061;32;20335;-59
2022/03/17 06:53:49;;;;;;;27.13;23.80;;;;;;;6.97;75.27;96114.44;4384980;32;20218;-59
2022/03/17 06:56:21;;;;;;;28.77;24.87;;;;;;;6.85;75.55;96112.78;4377733;32;20285;-59
2022/03/17 06:58:46;;;;;;;27.30;24.43;;;;;;;6.57;76.83;96120.13;4378220;32;20201;-59
2022/03/17 07:01:12;;;;;;;30.77;25.10;;;;;;;6.79;76.23;96113.78;4378190;32;20285;-59
2022/03/17 07:03:38;;;;;;;29.10;25.63;;;;;;;6.89;75.82;96116.50;4365242;32;20184;-59
2022/03/17 07:06:03;;;;;;;29.43;26.27;;;;;;;6.93;75.58;96113.34;4383032;32;20280;-59
2022/03/17 07:08:28;;;;;;;32.70;26.50;;;;;;;6.77;75.44;96115.06;4371827;32;20284;-59
2022/03/17 07:10:53;;;;;;;28.77;25.27;;;;;;;6.85;75.86;96118.06;4378407;32;20184;-59
2022/03/17 07:13:19;;;;;;;29.47;26.13;;;;;;;6.92;75.77;96119.69;4383821;32;20216;-59
2022/03/17 07:15:44;;;;;;;27.77;24.77;;;;;;;7.03;75.63;96121.37;4362025;32;20192;-59
2022/03/17 07:18:09;;;;;;;29.47;25.17;;;;;;;7.14;75.63;96123.84;4375388;32;20192;-60
2022/03/17 07:20:35;;;;;;;28.23;24.97;;;;;;;7.16;74.83;96134.94;4379025;32;20202;-59
2022/03/17 07:23:01;;;;;;;31.20;24.83;;;;;;;6.98;75.33;96142.44;4364022;32;20189;-59
2022/03/17 07:25:27;;;;;;;30.97;25.33;;;;;;;7.01;75.30;96137.44;4361535;32;20204;-59
2022/03/17 07:27:53;;;;;;;44.10;21.80;;;;;;;7.13;75.03;96137.28;4373597;32;20298;-59
2022/03/17 07:30:20;;;;;;;49.17;23.83;;;;;;;8.22;81.40;96145.41;4377615;32;20248;-59
2022/03/17 07:32:59;;;;;;;34.33;19.90;;;;;;;8.67;77.83;96138.72;4379114;32;20211;-59
2022/03/17 07:35:25;;;;;;;51.70;23.50;;;;;;;9.16;77.30;96140.91;4363535;32;20329;-59
2022/03/17 07:37:51;;;;;;;26.40;21.90;;;;;;;9.18;72.55;96138.78;4374858;32;20272;-59
2022/03/17 07:40:17;;;;;;;28.27;22.33;;;;;;;9.49;72.20;96134.31;4382546;32;20315;-59
2022/03/17 07:42:42;;;;;;;30.50;21.20;;;;;;;9.54;69.65;96144.91;4370318;32;20173;-59
2022/03/17 07:45:08;;;;;;;25.90;21.37;;;;;;;9.72;70.17;96148.88;4381913;32;20185;-59
2022/03/17 07:47:33;;;;;;;23.97;21.47;;;;;;;9.86;69.85;96147.25;4380021;32;20260;-59
2022/03/17 07:50:04;;;;;;;25.80;22.87;;;;;;;9.73;67.17;96150.47;4377124;32;20339;-59
2022/03/17 07:52:31;;;;;;;23.53;20.90;;;;;;;9.46;67.52;96145.44;4353154;32;20263;-59
2022/03/17 07:54:56;;;;;;;22.93;20.57;;;;;;;9.83;68.89;96148.56;4377638;32;20307;-59
2022/03/17 07:57:23;;;;;;;22.50;20.17;;;;;;;10.02;67.20;96151.44;4389137;32;20291;-59
2022/03/17 07:59:48;;;;;;;23.33;20.97;;;;;;;10.07;67.01;96159.41;4382525;32;20266;-59
2022/03/17 08:02:14;;;;;;;23.43;20.73;;;;;;;9.94;67.08;96166.06;4364051;32;20272;-58
2022/03/17 08:04:40;;;;;;;23.37;20.97;;;;;;;10.22;66.30;96169.97;4360659;32;20191;-59
2022/03/17 08:07:05;;;;;;;22.53;20.23;;;;;;;10.08;66.10;96168.16;4368492;32;20200;-59
2022/03/17 08:09:30;;;;;;;21.63;19.43;;;;;;;10.14;65.60;96165.22;4363667;32;20184;-58
2022/03/17 08:11:59;;;;;;;22.30;19.97;;;;;;;10.40;65.05;96170.47;4372460;32;20242;-59
2022/03/17 08:14:26;;;;;;;21.33;19.10;;;;;;;10.25;64.50;96174.75;4376219;32;20219;-59
2022/03/17 08:16:53;;;;;;;21.23;19.03;;;;;;;10.44;63.75;96176.81;4365883;32;20322;-59
2022/03/17 08:19:20;;;;;;;23.77;20.20;;;;;;;10.34;65.54;96182.97;4375633;32;20264;-58
2022/03/17 08:21:47;;;;;;;19.73;17.77;;;;;;;10.53;63.43;96186.59;4360865;32;20188;-59
2022/03/17 08:24:14;;;;;;;21.03;18.83;;;;;;;10.84;63.02;96186.47;4373582;32;20211;-59
2022/03/17 08:26:41;;;;;;;20.33;18.00;;;;;;;10.39;65.41;96179.50;4373549;32;20204;-59
2022/03/17 08:29:08;;;;;;;23.97;21.53;;;;;;;10.16;72.83;96186.97;4375443;32;20299;-59
2022/03/17 08:32:00;;;;;;;24.43;20.77;;;;;;;8.68;67.46;96187.94;4371240;32;20204;-59
2022/03/17 08:34:28;;;;;;;25.17;22.47;;;;;;;8.08;71.14;96194.50;4377629;32;20280;-60
2022/03/17 08:37:25;;;;;;;23.30;20.90;;;;;;;8.71;73.76;96192.69;4382327;32;20288;-60
2022/03/17 08:39:52;;;;;;;25.60;21.93;;;;;;;8.88;69.11;96193.28;4369326;32;20288;-59
2022/03/17 08:42:18;;;;;;;24.50;22.00;;;;;;;8.64;69.64;96196.63;4388218;32;20192;-61
2022/03/17 08:44:45;;;;;;;26.03;21.70;;;;;;;8.63;69.92;96209.06;4375607;32;20304;-60
2022/03/17 08:49:56;;;;;;;23.73;21.23;;;;;;;8.79;69.68;96210.69;4376638;32;20294;-60
2022/03/17 08:52:27;;;;;;;26.50;21.53;;;;;;;8.94;69.64;96213.37;4375169;32;20299;-60
2022/03/17 08:54:54;;;;;;;25.47;22.43;;;;;;;8.90;69.29;96212.34;4358636;32;20291;-60
2022/03/17 08:57:22;;;;;;;24.53;21.80;;;;;;;8.99;68.34;96219.75;4353059;32;20352;-60
2022/03/17 08:59:53;;;;;;;23.53;19.73;;;;;;;8.97;68.74;96217.38;4368465;32;20292;-60
2022/03/17 09:02:19;;;;;;;23.23;20.67;;;;;;;8.60;70.74;96222.78;4366986;32;20334;-60
2022/03/17 09:04:46;;;;;;;22.67;20.03;;;;;;;8.72;70.60;96231.31;4362996;32;20294;-60
2022/03/17 09:07:13;;;;;;;23.60;21.13;;;;;;;8.87;70.61;96222.63;4360490;32;20303;-60
2022/03/17 09:09:42;;;;;;;22.97;20.37;;;;;;;8.87;70.27;96231.38;4371371;32;20281;-60
2022/03/17 09:12:09;;;;;;;24.70;21.47;;;;;;;8.83;70.75;96221.56;4375538;32;20280;-60
2022/03/17 09:14:44;;;;;;;22.23;19.83;;;;;;;8.79;70.91;96216.00;4375344;32;20295;-60
2022/03/17 09:17:09;;;;;;;22.80;20.40;;;;;;;9.04;70.33;96227.72;4347561;32;20276;-60
2022/03/17 09:19:37;;;;;;;23.47;20.93;;;;;;;8.95;70.60;96214.19;4363398;32;20354;-60
2022/03/17 09:22:02;;;;;;;23.93;20.53;;;;;;;9.11;70.58;96222.97;4375142;32;20180;-60
2022/03/17 09:24:30;;;;;;;28.63;20.40;;;;;;;9.23;69.40;96226.16;4362613;32;20264;-60
2022/03/17 09:26:56;;;;;;;24.80;20.43;;;;;;;9.50;69.43;96229.41;4362282;32;20181;-60
2022/03/17 09:29:21;;;;;;;22.30;20.07;;;;;;;9.87;68.31;96236.28;4366169;32;20298;-60
2022/03/17 09:31:48;;;;;;;23.83;21.30;;;;;;;9.80;67.96;96236.53;4387013;32;20218;-60
2022/03/17 09:34:13;;;;;;;22.60;20.30;;;;;;;10.07;67.43;96225.66;4369758;32;20184;-60
2022/03/17 09:36:39;;;;;;;21.90;19.73;;;;;;;9.79;67.57;96234.94;4376320;32;20206;-60
2022/03/17 09:42:02;;;;;;;21.33;19.13;;;;;;;9.89;66.79;96223.56;4345375;32;20180;-60
2022/03/17 09:44:28;;;;;;;23.43;19.60;;;;;;;9.80;67.79;96225.16;4375244;32;20211;-60
2022/03/17 09:46:59;;;;;;;21.57;19.37;;;;;;;9.96;66.64;96229.41;4375128;32;20207;-61
2022/03/17 09:49:26;;;;;;;21.60;19.40;;;;;;;9.91;66.71;96226.75;4350264;32;20193;-61
2022/03/17 09:51:55;;;;;;;23.80;20.00;;;;;;;10.19;67.16;96231.50;4374222;32;20185;-61
2022/03/17 09:54:21;;;;;;;24.07;19.80;;;;;;;10.32;65.63;96228.31;4383180;32;20192;-61
2022/03/17 09:56:46;;;;;;;23.57;19.67;;;;;;;10.57;65.35;96229.31;4375806;32;20223;-60
2022/03/17 09:59:12;;;;;;;21.77;19.57;;;;;;;10.59;64.37;96243.09;4374131;32;20188;-61
2022/03/17 10:01:38;;;;;;;21.57;19.37;;;;;;;10.59;64.62;96238.59;4373804;32;20223;-59
2022/03/17 10:04:06;;;;;;;22.23;19.87;;;;;;;10.96;63.14;96243.50;4372158;32;20193;-60
2022/03/17 10:06:34;;;;;;;22.00;19.70;;;;;;;10.78;63.43;96252.06;4373691;32;20184;-60
2022/03/17 10:09:02;;;;;;;24.07;20.70;;;;;;;10.47;63.70;96253.19;4362856;32;20189;-60
2022/03/17 10:11:31;;;;;;;24.33;20.43;;;;;;;10.45;63.93;96256.13;4364771;32;20262;-59
2022/03/17 10:13:59;;;;;;;27.27;20.03;;;;;;;10.61;63.78;96254.22;4374426;32;20194;-59
2022/03/17 10:16:27;;;;;;;22.73;20.40;;;;;;;10.35;65.83;96258.03;4364795;32;20239;-60
2022/03/17 10:19:07;;;;;;;23.03;20.53;;;;;;;10.11;66.94;96253.25;4378455;32;20205;-59
2022/03/17 10:21:33;;;;;;;23.23;20.70;;;;;;;9.85;67.79;96259.59;4367459;32;20207;-59
2022/03/17 10:24:08;;;;;;;25.47;19.77;;;;;;;10.12;67.31;96260.13;4387490;32;20199;-59
2022/03/17 10:26:54;;;;;;;27.27;21.00;;;;;;;10.07;67.09;96254.03;4392907;32;20225;-59
2022/03/17 10:29:25;;;;;;;24.13;20.83;;;;;;;9.79;68.57;96260.66;4384612;32;20208;-60
2022/03/17 10:32:07;;;;;;;23.13;20.73;;;;;;;9.66;69.42;96256.69;4380671;32;20211;-59
2022/03/17 10:34:48;;;;;;;28.30;20.37;;;;;;;10.14;68.39;96255.38;4378223;32;20198;-59
2022/03/17 10:37:16;;;;;;;25.20;20.37;;;;;;;10.21;66.73;96253.25;4369361;32;20203;-59
2022/03/17 10:39:47;;;;;;;33.03;21.07;;;;;;;10.24;66.99;96252.72;4379181;32;20295;-59
2022/03/17 10:42:23;;;;;;;29.93;21.63;;;;;;;10.23;66.96;96250.31;4356698;32;20193;-59
2022/03/17 10:44:57;;;;;;;26.87;19.83;;;;;;;10.23;67.47;96250.31;4374676;32;20215;-59
2022/03/17 10:47:43;;;;;;;25.33;20.50;;;;;;;10.43;67.26;96255.59;4348604;32;20196;-59
2022/03/17 10:50:43;;;;;;;27.03;20.33;;;;;;;10.39;67.21;96251.91;4371070;32;20206;-59
2022/03/17 10:53:09;;;;;;;22.17;19.73;;;;;;;10.50;66.62;96255.31;4356419;32;20240;-59
2022/03/17 10:55:36;;;;;;;23.67;19.73;;;;;;;10.43;67.21;96260.09;4374342;32;20236;-59
2022/03/17 10:58:19;;;;;;;22.23;19.70;;;;;;;10.48;67.25;96265.41;4383555;32;20244;-59
2022/03/17 11:00:49;;;;;;;26.47;19.80;;;;;;;10.71;66.86;96259.50;4359197;32;20208;-59
2022/03/17 11:03:16;;;;;;;21.53;19.13;;;;;;;10.90;66.30;96265.81;4389701;32;20249;-58
2022/03/17 11:05:42;;;;;;;23.87;20.27;;;;;;;10.99;66.14;96268.72;4378062;32;20193;-59
2022/03/17 11:08:10;;;;;;;21.23;18.90;;;;;;;10.76;67.30;96264.81;4382607;32;20223;-58
2022/03/17 11:10:36;;;;;;;23.30;20.90;;;;;;;10.48;67.88;96268.06;4377217;32;20189;-59
2022/03/17 11:13:11;;;;;;;27.73;20.07;;;;;;;10.13;69.27;96272.34;4362723;32;20173;-59
2022/03/17 11:15:45;;;;;;;26.10;20.57;;;;;;;10.36;69.43;96268.34;4373713;32;20298;-59
2022/03/17 11:18:18;;;;;;;25.33;19.63;;;;;;;10.71;68.19;96272.78;4381193;32;20214;-59
2022/03/17 11:20:45;;;;;;;24.87;18.83;;;;;;;10.73;67.77;96275.97;4355590;32;20204;-59
2022/03/17 11:23:16;;;;;;;22.80;20.43;;;;;;;10.99;66.67;96269.50;4385824;32;20205;-59
2022/03/17 11:25:51;;;;;;;25.43;20.00;;;;;;;10.61;66.97;96267.47;4361040;32;20200;-59
2022/03/17 11:28:17;;;;;;;22.57;19.30;;;;;;;10.70;67.12;96263.22;4372535;32;20188;-59
2022/03/17 11:30:47;;;;;;;28.73;21.43;;;;;;;10.71;66.74;96266.69;4362279;32;20236;-60
2022/03/17 11:33:30;;;;;;;32.43;20.00;;;;;;;10.74;66.70;96266.13;4383948;32;20218;-61
2022/03/17 11:36:09;;;;;;;21.50;19.20;;;;;;;10.94;66.34;96272.16;4378013;32;20199;-59
2022/03/17 11:38:39;;;;;;;22.30;20.07;;;;;;;11.25;64.74;96267.50;4381116;32;20183;-59
2022/03/17 11:41:12;;;;;;;24.00;20.47;;;;;;;11.21;64.93;96263.81;4380099;32;20189;-60
2022/03/17 11:43:38;;;;;;;23.43;21.00;;;;;;;11.54;63.31;96274.78;4375829;32;20250;-59
2022/03/17 11:46:11;;;;;;;24.80;20.57;;;;;;;11.22;63.84;96272.59;4383494;32;20207;-59
2022/03/17 11:48:36;;;;;;;23.03;20.57;;;;;;;11.34;63.53;96262.41;4368910;32;20203;-59